createdAt,value
2018-06-10T00:02:30.255Z,91544.73
2018-06-10T00:05:04.397Z,91547.73
2018-06-10T00:07:38.445Z,91544.14
2018-06-10T00:10:12.549Z,91549.70
2018-06-10T00:12:46.637Z,91546.48
2018-06-10T00:15:20.877Z,91542.86
2018-06-10T00:17:54.827Z,91543.03
2018-06-10T00:20:29.075Z,91541.45
2018-06-10T00:23:03.243Z,91533.73
2018-06-10T00:25:37.306Z,91537.23
2018-06-10T00:28:11.306Z,91535.97
2018-06-10T00:30:45.314Z,91533.28
2018-06-10T00:33:19.227Z,91540.13
2018-06-10T00:35:53.215Z,91541.14
2018-06-10T00:38:27.368Z,91542.09
2018-06-10T00:41:01.346Z,91544.67
2018-06-10T00:43:35.228Z,91539.15
2018-06-10T00:46:09.122Z,91535.06
2018-06-10T00:48:43.116Z,91534.95
2018-06-10T00:51:17.012Z,91531.50
2018-06-10T00:53:51.059Z,91535.85
2018-06-10T00:56:36.160Z,91536.05
2018-06-10T00:59:10.224Z,91531.50
2018-06-10T01:01:44.366Z,91528.19
2018-06-10T01:04:18.318Z,91533.67
2018-06-10T01:06:52.390Z,91534.64
2018-06-10T01:09:29.823Z,91531.84
2018-06-10T01:12:04.518Z,91524.62
2018-06-10T01:14:38.589Z,91520.45
2018-06-10T01:17:12.580Z,91517.14
2018-06-10T01:19:46.595Z,91513.29
2018-06-10T01:22:20.702Z,91508.43
2018-06-10T01:24:54.887Z,91511.63
2018-06-10T01:27:28.913Z,91511.94
2018-06-10T01:30:02.936Z,91503.67
2018-06-10T01:32:36.920Z,91511.45
2018-06-10T01:35:10.891Z,91512.97
2018-06-10T01:37:45.135Z,91520.50
2018-06-10T01:40:19.204Z,91519.55
2018-06-10T01:42:53.246Z,91525.78
2018-06-10T01:45:27.178Z,91518.66
2018-06-10T01:48:01.167Z,91511.63
2018-06-10T01:50:35.109Z,91495.61
2018-06-10T01:53:09.149Z,91505.28
2018-06-10T01:55:43.040Z,91504.50
2018-06-10T01:58:17.292Z,91504.36
2018-06-10T02:00:51.399Z,91501.77
2018-06-10T02:03:25.362Z,91502.85
2018-06-10T02:05:59.340Z,91500.71
2018-06-10T02:08:33.346Z,91502.86
2018-06-10T02:11:07.354Z,91502.52
2018-06-10T02:13:41.560Z,91508.90
2018-06-10T02:16:15.642Z,91508.30
2018-06-10T02:18:49.586Z,91510.00
2018-06-10T02:21:23.520Z,91517.37
2018-06-10T02:23:57.512Z,91520.09
2018-06-10T02:26:31.677Z,91522.98
2018-06-10T02:29:05.927Z,91526.92
2018-06-10T02:31:39.840Z,91524.83
2018-06-10T02:34:13.855Z,91532.02
2018-06-10T02:36:47.769Z,91530.96
2018-06-10T02:39:21.845Z,91535.16
2018-06-10T02:41:55.844Z,91538.05
2018-06-10T02:44:29.857Z,91539.77
2018-06-10T02:47:04.007Z,91538.66
2018-06-10T02:49:38.027Z,91538.00
2018-06-10T02:52:12.125Z,91537.66
2018-06-10T02:54:46.098Z,91543.14
2018-06-10T02:57:20.135Z,91542.09
2018-06-10T02:59:54.206Z,91548.30
2018-06-10T03:02:28.252Z,91553.86
2018-06-10T03:05:02.280Z,91561.77
2018-06-10T03:07:36.132Z,91563.37
2018-06-10T03:10:10.302Z,91564.60
2018-06-10T03:12:44.736Z,91563.94
2018-06-10T03:15:19.046Z,91569.66
2018-06-10T03:17:52.999Z,91563.72
2018-06-10T03:20:27.184Z,91568.08
2018-06-10T03:23:01.348Z,91565.08
2018-06-10T03:25:35.317Z,91573.66
2018-06-10T03:28:09.331Z,91576.33
2018-06-10T03:30:43.415Z,91576.57
2018-06-10T03:33:17.387Z,91573.48
2018-06-10T03:35:51.514Z,91576.22
2018-06-10T03:38:25.395Z,91571.20
2018-06-10T03:40:59.389Z,91573.45
2018-06-10T03:43:33.640Z,91573.32
2018-06-10T03:46:07.810Z,91577.08
2018-06-10T03:48:41.733Z,91574.88
2018-06-10T03:51:15.740Z,91583.05
2018-06-10T03:53:49.664Z,91575.18
2018-06-10T03:56:23.698Z,91572.33
2018-06-10T03:58:57.655Z,91569.46
2018-06-10T04:01:31.888Z,91571.79
2018-06-10T04:04:06.020Z,91576.96
2018-06-10T04:06:39.947Z,91579.56
2018-06-10T04:09:13.975Z,91578.48
2018-06-10T04:11:48.094Z,91588.12
2018-06-10T04:14:22.349Z,91587.57
2018-06-10T04:16:56.464Z,91589.20
2018-06-10T04:19:30.539Z,91594.96
2018-06-10T04:22:04.607Z,91600.81
2018-06-10T04:24:38.478Z,91598.45
2018-06-10T04:27:12.556Z,91599.50
2018-06-10T04:29:46.498Z,91603.20
2018-06-10T04:32:20.627Z,91604.39
2018-06-10T04:34:54.761Z,91603.47
2018-06-10T04:37:28.776Z,91605.09
2018-06-10T04:40:02.910Z,91613.84
2018-06-10T04:42:36.951Z,91616.10
2018-06-10T04:45:10.921Z,91614.69
2018-06-10T04:47:44.900Z,91621.44
2018-06-10T04:50:18.884Z,91621.34
2018-06-10T04:52:52.973Z,91628.64
2018-06-10T04:55:26.965Z,91630.50
2018-06-10T04:58:01.021Z,91627.52
2018-06-10T05:00:34.951Z,91638.88
2018-06-10T05:03:08.954Z,91634.75
2018-06-10T05:05:42.892Z,91640.77
2018-06-10T05:08:16.944Z,91634.31
2018-06-10T05:10:50.814Z,91637.56
2018-06-10T05:13:24.939Z,91639.19
2018-06-10T05:15:58.962Z,91631.00
2018-06-10T05:18:32.987Z,91634.77
2018-06-10T05:21:06.944Z,91644.56
2018-06-10T05:23:40.901Z,91640.55
2018-06-10T05:26:14.898Z,91642.52
2018-06-10T05:28:48.902Z,91646.13
2018-06-10T05:31:22.798Z,91644.95
2018-06-10T05:33:56.828Z,91643.02
2018-06-10T05:36:30.835Z,91640.21
2018-06-10T05:39:10.734Z,91645.08
2018-06-10T05:41:44.716Z,91638.33
2018-06-10T05:44:18.748Z,91634.69
2018-06-10T05:46:52.851Z,91632.08
2018-06-10T05:49:27.030Z,91633.29
2018-06-10T05:52:01.015Z,91637.16
2018-06-10T05:54:35.024Z,91635.03
2018-06-10T05:57:08.983Z,91635.83
2018-06-10T05:59:43.263Z,91635.58
2018-06-10T06:02:17.543Z,91641.16
2018-06-10T06:04:51.576Z,91642.33
2018-06-10T06:07:25.555Z,91641.92
2018-06-10T06:09:59.639Z,91640.67
2018-06-10T06:12:33.731Z,91641.14
2018-06-10T06:15:07.650Z,91636.95
2018-06-10T06:17:41.667Z,91639.50
2018-06-10T06:20:15.814Z,91643.96
2018-06-10T06:22:49.816Z,91633.96
2018-06-10T06:25:23.852Z,91637.98
2018-06-10T06:27:57.867Z,91638.16
2018-06-10T06:31:56.269Z,91638.78
2018-06-10T06:34:30.203Z,91636.14
2018-06-10T06:37:04.179Z,91638.63
2018-06-10T06:39:38.235Z,91632.30
2018-06-10T06:42:12.332Z,91632.67
2018-06-10T06:44:46.289Z,91632.53
2018-06-10T06:47:20.500Z,91633.44
2018-06-10T06:49:54.388Z,91638.42
2018-06-10T06:52:28.435Z,91638.09
2018-06-10T06:55:02.423Z,91630.02
2018-06-10T06:57:36.428Z,91628.41
2018-06-10T07:00:10.352Z,91632.11
2018-06-10T07:02:44.387Z,91627.39
2018-06-10T07:05:18.412Z,91624.73
2018-06-10T07:07:52.935Z,91619.92
2018-06-10T07:10:26.957Z,91625.87
2018-06-10T07:13:01.134Z,91621.12
2018-06-10T07:15:35.315Z,91621.34
2018-06-10T07:18:12.711Z,91624.80
2018-06-10T07:20:47.074Z,91613.72
2018-06-10T07:23:21.165Z,91619.14
2018-06-10T07:25:55.168Z,91617.31
2018-06-10T07:28:29.172Z,91615.05
2018-06-10T07:31:03.278Z,91617.20
2018-06-10T07:33:37.272Z,91617.84
2018-06-10T07:36:11.493Z,91613.73
2018-06-10T07:38:46.812Z,91615.39
2018-06-10T07:41:20.927Z,91614.27
2018-06-10T07:43:54.987Z,91615.13
2018-06-10T07:46:29.108Z,91611.23
2018-06-10T07:49:03.130Z,91614.16
2018-06-10T07:51:37.216Z,91612.92
2018-06-10T07:54:13.022Z,91614.05
2018-06-10T07:56:46.967Z,91620.23
2018-06-10T07:59:21.063Z,91609.16
2018-06-10T08:01:55.122Z,91608.33
2018-06-10T08:04:29.157Z,91606.70
2018-06-10T08:07:03.188Z,91614.43
2018-06-10T08:09:37.527Z,91617.27
2018-06-10T08:12:11.510Z,91613.02
2018-06-10T08:14:45.793Z,91624.94
2018-06-10T08:17:19.894Z,91611.64
2018-06-10T08:19:54.066Z,91612.33
2018-06-10T08:22:28.311Z,91607.42
2018-06-10T08:25:02.471Z,91597.20
2018-06-10T08:27:36.452Z,91592.83
2018-06-10T08:30:10.589Z,91588.81
2018-06-10T08:32:44.669Z,91584.47
2018-06-10T08:35:18.732Z,91586.34
2018-06-10T08:37:52.653Z,91589.16
2018-06-10T08:40:27.248Z,91591.59
2018-06-10T08:43:01.379Z,91605.09
2018-06-10T08:45:35.731Z,91610.56
2018-06-10T08:48:09.815Z,91599.36
2018-06-10T08:50:44.191Z,91599.99
2018-06-10T08:53:18.252Z,91599.31
2018-06-10T08:55:52.438Z,91603.23
2018-06-10T08:58:26.581Z,91611.07
2018-06-10T09:01:00.984Z,91621.72
2018-06-10T09:03:35.931Z,91652.88
2018-06-10T09:06:10.299Z,91699.72
2018-06-10T09:08:44.595Z,91731.58
2018-06-10T09:11:19.626Z,91728.66
2018-06-10T09:13:53.582Z,91703.25
2018-06-10T09:16:30.159Z,91698.74
2018-06-10T09:20:29.408Z,91683.05
2018-06-10T09:25:52.071Z,91707.65
2018-06-10T09:28:26.577Z,91710.02
2018-06-10T09:31:00.811Z,91713.81
2018-06-10T09:33:35.156Z,91707.20
2018-06-10T09:36:10.033Z,91704.83
2018-06-10T09:38:44.312Z,91705.38
2018-06-10T09:41:18.389Z,91706.38
2018-06-10T09:43:52.651Z,91705.95
2018-06-10T09:46:26.822Z,91708.97
2018-06-10T09:49:00.799Z,91708.00
2018-06-10T09:51:34.690Z,91717.42
2018-06-10T09:54:08.814Z,91719.70
2018-06-10T09:56:42.761Z,91720.97
2018-06-10T09:59:16.965Z,91718.08
2018-06-10T10:01:51.121Z,91726.00
2018-06-10T10:04:25.194Z,91720.52
2018-06-10T10:06:59.090Z,91724.37
2018-06-10T10:09:34.215Z,91732.39
2018-06-10T10:12:08.391Z,91730.13
2018-06-10T10:14:43.248Z,91729.59
2018-06-10T10:17:17.369Z,91731.14
2018-06-10T10:19:51.364Z,91726.84
2018-06-10T10:22:25.422Z,91727.09
2018-06-10T10:24:59.598Z,91725.16
2018-06-10T10:27:33.719Z,91729.91
2018-06-10T10:30:08.850Z,91725.05
2018-06-10T10:32:42.956Z,91719.78
2018-06-10T10:35:17.136Z,91714.77
2018-06-10T10:37:52.175Z,91703.36
2018-06-10T10:40:26.382Z,91701.08
2018-06-10T10:43:01.615Z,91695.66
2018-06-10T10:45:35.788Z,91690.47
2018-06-10T10:48:09.810Z,91688.11
2018-06-10T10:50:43.815Z,91680.51
2018-06-10T10:53:18.005Z,91683.50
2018-06-10T10:55:52.057Z,91674.45
2018-06-10T10:58:26.244Z,91676.92
2018-06-10T11:01:00.486Z,91675.95
2018-06-10T11:03:34.560Z,91666.05
2018-06-10T11:06:08.749Z,91666.22
2018-06-10T11:08:42.926Z,91661.75
2018-06-10T11:11:17.010Z,91656.77
2018-06-10T11:13:50.927Z,91658.72
2018-06-10T11:16:25.033Z,91661.13
2018-06-10T11:18:59.018Z,91658.84
2018-06-10T11:21:33.138Z,91661.09
2018-06-10T11:24:07.300Z,91667.12
2018-06-10T11:26:41.482Z,91659.27
2018-06-10T11:29:15.571Z,91661.00
2018-06-10T11:31:49.721Z,91667.27
2018-06-10T11:34:23.725Z,91666.36
2018-06-10T11:36:57.718Z,91667.62
2018-06-10T11:39:31.783Z,91653.80
2018-06-10T11:41:59.813Z,91645.80
2018-06-10T11:44:27.756Z,91649.95
2018-06-10T11:46:55.663Z,91660.69
2018-06-10T11:49:23.654Z,91666.77
2018-06-10T11:51:51.571Z,91664.70
2018-06-10T11:54:19.465Z,91659.02
2018-06-10T11:56:47.429Z,91652.48
2018-06-10T11:59:15.476Z,91651.72
2018-06-10T12:01:43.456Z,91648.09
2018-06-10T12:04:11.401Z,91654.59
2018-06-10T12:06:39.345Z,91649.16
2018-06-10T12:09:07.740Z,91646.96
2018-06-10T12:11:35.869Z,91650.79
2018-06-10T12:14:03.823Z,91652.60
2018-06-10T12:16:31.755Z,91649.94
2018-06-10T12:18:59.723Z,91647.67
2018-06-10T12:21:27.657Z,91653.28
2018-06-10T12:23:55.571Z,91650.09
2018-06-10T12:26:23.535Z,91649.92
2018-06-10T12:28:51.524Z,91640.07
2018-06-10T12:31:19.434Z,91644.02
2018-06-10T12:33:47.445Z,91636.05
2018-06-10T12:36:15.374Z,91639.14
2018-06-10T12:38:43.335Z,91636.25
2018-06-10T12:41:11.286Z,91648.97
2018-06-10T12:43:39.206Z,91661.19
2018-06-10T12:46:07.140Z,91663.46
2018-06-10T12:48:35.080Z,91663.66
2018-06-10T12:51:03.015Z,91669.63
2018-06-10T12:53:30.965Z,91666.74
2018-06-10T12:55:59.034Z,91681.45
2018-06-10T12:58:26.979Z,91686.48
2018-06-10T13:00:54.909Z,91677.72
2018-06-10T13:03:23.244Z,91679.43
2018-06-10T13:05:51.204Z,91671.56
2018-06-10T13:08:19.119Z,91674.35
2018-06-10T13:10:47.164Z,91673.81
2018-06-10T13:13:15.106Z,91673.84
2018-06-10T13:15:43.018Z,91678.30
2018-06-10T13:18:11.842Z,91676.31
2018-06-10T13:20:39.768Z,91684.10
2018-06-10T13:23:07.727Z,91685.47
2018-06-10T13:25:35.697Z,91680.69
2018-06-10T13:28:03.695Z,91684.05
2018-06-10T13:30:31.719Z,91691.08
2018-06-10T13:32:59.725Z,91701.75
2018-06-10T13:35:27.668Z,91698.78
2018-06-10T13:37:55.645Z,91707.63
2018-06-10T13:40:23.710Z,91698.93
2018-06-10T13:42:51.648Z,91707.18
2018-06-10T13:45:19.699Z,91707.44
2018-06-10T13:47:47.776Z,91702.36
2018-06-10T13:50:15.716Z,91704.38
2018-06-10T13:52:43.631Z,91704.23
2018-06-10T13:55:11.609Z,91704.75
2018-06-10T13:57:39.526Z,91706.97
2018-06-10T14:00:07.475Z,91715.05
2018-06-10T14:02:35.555Z,91723.57
2018-06-10T14:05:03.566Z,91717.69
2018-06-10T14:07:31.522Z,91716.52
2018-06-10T14:09:59.491Z,91709.52
2018-06-10T14:12:27.452Z,91721.43
2018-06-10T14:14:55.411Z,91731.03
2018-06-10T14:17:23.368Z,91735.28
2018-06-10T14:19:51.311Z,91737.73
2018-06-10T14:22:19.230Z,91720.77
2018-06-10T14:24:48.092Z,91702.36
2018-06-10T14:27:16.009Z,91704.46
2018-06-10T14:29:43.977Z,91709.95
2018-06-10T14:32:12.024Z,91719.02
2018-06-10T14:34:39.953Z,91709.82
2018-06-10T14:37:07.892Z,91703.58
2018-06-10T14:39:35.866Z,91719.81
2018-06-10T14:42:03.845Z,91728.77
2018-06-10T14:44:31.823Z,91721.14
2018-06-10T14:46:59.857Z,91718.48
2018-06-10T14:49:27.808Z,91710.46
2018-06-10T14:51:55.800Z,91705.05
2018-06-10T14:54:23.767Z,91688.45
2018-06-10T14:56:51.703Z,91684.70
2018-06-10T14:59:19.634Z,91698.58
2018-06-10T15:01:47.588Z,91710.36
2018-06-10T15:04:15.560Z,91720.14
2018-06-10T15:06:43.611Z,91713.89
2018-06-10T15:09:11.720Z,91712.97
2018-06-10T15:11:39.647Z,91710.19
2018-06-10T15:14:08.319Z,91720.98
2018-06-10T15:16:36.294Z,91721.30
2018-06-10T15:19:04.264Z,91728.84
2018-06-10T15:21:32.204Z,91726.17
2018-06-10T15:24:00.206Z,91728.24
2018-06-10T15:26:28.769Z,91713.46
2018-06-10T15:28:56.771Z,91724.59
2018-06-10T15:31:24.779Z,91724.07
2018-06-10T15:33:52.811Z,91736.73
2018-06-10T15:36:20.811Z,91738.42
2018-06-10T15:38:48.770Z,91731.69
2018-06-10T15:41:16.712Z,91735.58
2018-06-10T15:43:44.634Z,91745.80
2018-06-10T15:46:12.614Z,91744.98
2018-06-10T15:48:40.522Z,91748.55
2018-06-10T15:51:08.450Z,91750.20
2018-06-10T15:53:36.504Z,91757.80
2018-06-10T15:56:04.496Z,91759.50
2018-06-10T15:58:32.547Z,91755.14
2018-06-10T16:01:00.633Z,91753.59
2018-06-10T16:03:28.681Z,91754.81
2018-06-10T16:05:56.672Z,91755.11
2018-06-10T16:08:31.285Z,91751.72
2018-06-10T16:11:01.185Z,91757.10
2018-06-10T16:13:29.315Z,91762.44
2018-06-10T16:15:57.334Z,91772.94
2018-06-10T16:18:25.382Z,91775.81
2018-06-10T16:20:58.670Z,91780.26
2018-06-10T16:23:26.617Z,91776.09
2018-06-10T16:25:54.551Z,91774.20
2018-06-10T16:28:22.578Z,91770.42
2018-06-10T16:30:50.472Z,91768.20
2018-06-10T16:33:18.405Z,91763.11
2018-06-10T16:35:46.660Z,91762.25
2018-06-10T16:38:14.583Z,91755.52
2018-06-10T16:40:42.504Z,91755.22
2018-06-10T16:43:10.680Z,91757.16
2018-06-10T16:45:38.597Z,91764.69
2018-06-10T16:48:06.536Z,91749.72
2018-06-10T16:50:35.986Z,91745.94
2018-06-10T16:53:03.934Z,91744.89
2018-06-10T16:55:31.872Z,91746.05
2018-06-10T16:58:00.155Z,91735.58
2018-06-10T17:00:28.083Z,91731.81
2018-06-10T17:02:55.999Z,91738.13
2018-06-10T17:05:23.968Z,91733.38
2018-06-10T17:07:51.994Z,91738.13
2018-06-10T17:10:19.922Z,91748.08
2018-06-10T17:12:47.885Z,91746.41
2018-06-10T17:15:15.843Z,91744.55
2018-06-10T17:17:43.780Z,91747.03
2018-06-10T17:20:11.826Z,91743.91
2018-06-10T17:22:39.760Z,91754.97
2018-06-10T17:25:07.683Z,91761.15
2018-06-10T17:27:35.632Z,91760.29
2018-06-10T17:30:04.019Z,91764.22
2018-06-10T17:32:31.940Z,91766.27
2018-06-10T17:35:00.814Z,91769.91
2018-06-10T17:37:29.522Z,91767.55
2018-06-10T17:39:57.438Z,91770.53
2018-06-10T17:42:25.422Z,91783.67
2018-06-10T17:44:53.515Z,91787.97
2018-06-10T17:47:21.659Z,91783.50
2018-06-10T17:49:50.696Z,91791.61
2018-06-10T17:52:20.073Z,91793.55
2018-06-10T17:54:48.756Z,91790.91
2018-06-10T17:57:16.730Z,91794.55
2018-06-10T17:59:44.658Z,91795.25
2018-06-10T18:02:12.610Z,91784.24
2018-06-10T18:04:40.935Z,91792.80
2018-06-10T18:07:09.206Z,91792.67
2018-06-10T18:09:38.103Z,91798.84
2018-06-10T18:19:12.618Z,91802.82
2018-06-10T18:21:40.852Z,91806.40
2018-06-10T18:24:09.996Z,91807.94
2018-06-10T18:26:44.982Z,91801.59
2018-06-10T18:29:14.234Z,91808.44
2018-06-10T18:31:44.947Z,91808.91
2018-06-10T18:34:13.453Z,91807.87
2018-06-10T18:36:42.158Z,91815.73
2018-06-10T18:39:11.696Z,91817.85
2018-06-10T18:41:39.790Z,91822.37
2018-06-10T18:44:07.979Z,91822.79
2018-06-10T18:46:36.203Z,91823.88
2018-06-10T18:49:07.370Z,91834.12
2018-06-10T18:51:39.357Z,91827.35
2018-06-10T18:54:08.470Z,91828.08
2018-06-10T18:56:37.120Z,91829.87
2018-06-10T18:59:05.577Z,91834.00
2018-06-10T19:01:34.937Z,91842.33
2018-06-10T19:04:03.639Z,91845.92
2018-06-10T19:06:32.598Z,91847.13
2018-06-10T19:09:23.015Z,91856.83
2018-06-10T19:11:51.155Z,91858.33
2018-06-10T19:14:19.238Z,91858.73
2018-06-10T19:16:47.263Z,91861.80
2018-06-10T19:19:15.402Z,91864.00
2018-06-10T19:21:43.477Z,91864.92
2018-06-10T19:24:11.575Z,91867.32
2018-06-10T19:26:40.899Z,91870.60
2018-06-10T19:29:09.514Z,91870.05
2018-06-10T19:31:38.144Z,91881.06
2018-06-10T19:34:06.263Z,91878.99
2018-06-10T19:36:35.453Z,91885.08
2018-06-10T19:39:04.525Z,91882.25
2018-06-10T19:41:33.064Z,91885.14
2018-06-10T19:44:01.388Z,91890.05
2018-06-10T19:46:29.503Z,91890.15
2018-06-10T19:48:57.973Z,91901.71
2018-06-10T19:51:26.086Z,91898.45
2018-06-10T19:53:54.194Z,91893.92
2018-06-10T19:56:23.403Z,91895.13
2018-06-10T19:58:58.028Z,91905.13
2018-06-10T20:01:33.232Z,91908.95
2018-06-10T20:04:08.060Z,91911.41
2018-06-10T20:06:42.281Z,91910.16
2018-06-10T20:09:16.466Z,91909.66
2018-06-10T20:11:50.558Z,91912.06
2018-06-10T20:14:25.082Z,91908.55
2018-06-10T20:16:59.195Z,91915.78
2018-06-10T20:19:33.497Z,91916.13
2018-06-10T20:22:08.012Z,91915.52
2018-06-10T20:24:43.125Z,91915.38
2018-06-10T20:27:17.540Z,91920.70
2018-06-10T20:29:51.814Z,91922.97
2018-06-10T20:32:26.504Z,91917.83
2018-06-10T20:35:01.028Z,91920.59
2018-06-10T20:37:36.587Z,91918.45
2018-06-10T20:40:10.778Z,91918.51
2018-06-10T20:42:45.132Z,91924.88
2018-06-10T20:45:19.335Z,91927.69
2018-06-10T20:47:53.787Z,91933.58
2018-06-10T20:50:28.275Z,91938.97
2018-06-10T20:53:02.494Z,91939.40
2018-06-10T20:55:36.708Z,91941.25
2018-06-10T20:58:11.067Z,91941.45
2018-06-10T21:00:45.115Z,91941.42
2018-06-10T21:03:19.352Z,91943.85
2018-06-10T21:05:54.651Z,91933.62
2018-06-10T21:08:29.357Z,91934.41
2018-06-10T21:11:03.387Z,91931.39
2018-06-10T21:13:38.639Z,91931.13
2018-06-10T21:16:13.092Z,91927.72
2018-06-10T21:18:47.392Z,91928.04
2018-06-10T21:21:23.192Z,91920.89
2018-06-10T21:23:58.548Z,91927.34
2018-06-10T21:26:32.798Z,91928.59
2018-06-10T21:29:07.406Z,91932.94
2018-06-10T21:31:41.722Z,91929.38
2018-06-10T21:34:16.147Z,91926.02
2018-06-10T21:36:50.178Z,91927.11
2018-06-10T21:39:25.349Z,91932.28
2018-06-10T21:41:59.561Z,91937.23
2018-06-10T21:44:34.828Z,91933.06
2018-06-10T21:47:09.235Z,91933.55
2018-06-10T21:49:43.435Z,91933.66
2018-06-10T21:52:19.351Z,91937.07
2018-06-10T21:54:53.631Z,91931.21
2018-06-10T21:57:27.704Z,91931.38
2018-06-10T22:00:01.994Z,91938.31
2018-06-10T22:02:37.535Z,91935.44
2018-06-10T22:05:12.248Z,91935.13
2018-06-10T22:07:46.244Z,91941.77
2018-06-10T22:10:21.537Z,91948.00
2018-06-10T22:12:55.891Z,91950.94
2018-06-10T22:15:30.301Z,91937.55
2018-06-10T22:18:04.632Z,91944.49
2018-06-10T22:20:39.131Z,91948.28
2018-06-10T22:23:13.510Z,91939.02
2018-06-10T22:25:48.670Z,91939.61
2018-06-10T22:28:24.051Z,91930.80
2018-06-10T22:30:58.260Z,91928.88
2018-06-10T22:33:32.861Z,91924.61
2018-06-10T22:36:07.046Z,91925.53
2018-06-10T22:38:41.285Z,91929.97
2018-06-10T22:41:16.445Z,91923.42
2018-06-10T22:43:50.651Z,91921.42
2018-06-10T22:46:27.197Z,91917.59
2018-06-10T22:49:02.044Z,91920.56
2018-06-10T22:51:36.443Z,91918.97
2018-06-10T22:54:21.854Z,91917.55
2018-06-10T22:56:56.753Z,91917.02
2018-06-10T22:59:31.002Z,91918.07
2018-06-10T23:02:06.455Z,91923.36
2018-06-10T23:04:40.979Z,91919.09
2018-06-10T23:07:15.765Z,91916.39
2018-06-10T23:09:49.943Z,91910.59
2018-06-10T23:12:24.186Z,91914.76
2018-06-10T23:14:59.398Z,91914.30
2018-06-10T23:17:39.381Z,91919.83
2018-06-10T23:20:13.637Z,91910.84
2018-06-10T23:22:47.937Z,91913.48
2018-06-10T23:25:22.622Z,91914.45
2018-06-10T23:27:56.976Z,91911.02
2018-06-10T23:30:31.249Z,91911.08
2018-06-10T23:33:05.892Z,91916.19
2018-06-10T23:35:41.095Z,91914.95
2018-06-10T23:38:16.804Z,91916.08
2018-06-10T23:40:50.980Z,91909.78
2018-06-10T23:43:25.357Z,91914.34
2018-06-10T23:45:59.997Z,91908.00
2018-06-10T23:48:34.609Z,91910.42
2018-06-10T23:51:08.853Z,91910.48
2018-06-10T23:53:42.857Z,91909.66
2018-06-10T23:56:17.118Z,91911.25
2018-06-10T23:58:51.369Z,91906.02
